sensor_id;sensor_type;location;lat;lon;timestamp;temperature;humidity
11762;DHT22;5938;47.098;15.474;2023-08-08T00:00:01;9.30;99.90
11762;DHT22;5938;47.098;15.474;2023-08-08T00:04:06;9.30;99.90
11762;DHT22;5938;47.098;15.474;2023-08-08T00:08:10;9.30;99.90
11762;DHT22;5938;47.098;15.474;2023-08-08T00:12:14;9.30;99.90
11762;DHT22;5938;47.098;15.474;2023-08-08T00:16:17;9.40;99.90
11762;DHT22;5938;47.098;15.474;2023-08-08T00:20:23;9.50;99.90
11762;DHT22;5938;47.098;15.474;2023-08-08T00:24:26;9.50;99.90
11762;DHT22;5938;47.098;15.474;2023-08-08T00:28:30;9.50;99.90
11762;DHT22;5938;47.098;15.474;2023-08-08T00:32:34;9.40;99.90
11762;DHT22;5938;47.098;15.474;2023-08-08T00:36:39;9.30;99.90
11762;DHT22;5938;47.098;15.474;2023-08-08T00:40:44;9.30;99.90
11762;DHT22;5938;47.098;15.474;2023-08-08T00:44:48;9.20;99.90
11762;DHT22;5938;47.098;15.474;2023-08-08T00:48:52;9.10;99.90
11762;DHT22;5938;47.098;15.474;2023-08-08T00:52:57;9.10;99.90
11762;DHT22;5938;47.098;15.474;2023-08-08T00:57:01;9.00;99.90
11762;DHT22;5938;47.098;15.474;2023-08-08T01:01:05;8.90;99.90
11762;DHT22;5938;47.098;15.474;2023-08-08T01:05:10;8.80;99.90
11762;DHT22;5938;47.098;15.474;2023-08-08T01:09:20;8.90;99.90
11762;DHT22;5938;47.098;15.474;2023-08-08T01:13:26;8.90;99.90
11762;DHT22;5938;47.098;15.474;2023-08-08T01:17:31;8.80;99.90
11762;DHT22;5938;47.098;15.474;2023-08-08T01:21:38;8.80;99.90
11762;DHT22;5938;47.098;15.474;2023-08-08T01:25:45;8.80;99.90
11762;DHT22;5938;47.098;15.474;2023-08-08T01:29:49;8.80;99.90
11762;DHT22;5938;47.098;15.474;2023-08-08T01:33:53;8.70;99.90
11762;DHT22;5938;47.098;15.474;2023-08-08T01:38:03;8.70;99.90
11762;DHT22;5938;47.098;15.474;2023-08-08T01:42:10;8.60;99.90
11762;DHT22;5938;47.098;15.474;2023-08-08T01:46:15;8.50;99.90
11762;DHT22;5938;47.098;15.474;2023-08-08T01:50:19;8.40;99.90
11762;DHT22;5938;47.098;15.474;2023-08-08T01:54:23;8.40;99.90
11762;DHT22;5938;47.098;15.474;2023-08-08T01:58:28;8.30;99.90
11762;DHT22;5938;47.098;15.474;2023-08-08T02:02:32;8.30;99.90
11762;DHT22;5938;47.098;15.474;2023-08-08T02:06:38;8.20;99.90
11762;DHT22;5938;47.098;15.474;2023-08-08T02:10:41;8.20;99.90
11762;DHT22;5938;47.098;15.474;2023-08-08T02:14:47;8.20;99.90
11762;DHT22;5938;47.098;15.474;2023-08-08T02:18:50;8.10;99.90
11762;DHT22;5938;47.098;15.474;2023-08-08T02:22:55;8.10;99.90
11762;DHT22;5938;47.098;15.474;2023-08-08T02:26:58;8.10;99.90
11762;DHT22;5938;47.098;15.474;2023-08-08T02:31:03;7.90;99.90
11762;DHT22;5938;47.098;15.474;2023-08-08T02:35:08;7.90;99.90
11762;DHT22;5938;47.098;15.474;2023-08-08T02:39:11;7.90;99.90
11762;DHT22;5938;47.098;15.474;2023-08-08T02:43:15;7.80;99.90
11762;DHT22;5938;47.098;15.474;2023-08-08T02:47:20;7.80;99.90
11762;DHT22;5938;47.098;15.474;2023-08-08T02:51:24;7.80;99.90
11762;DHT22;5938;47.098;15.474;2023-08-08T02:55:27;7.80;99.90
11762;DHT22;5938;47.098;15.474;2023-08-08T02:59:31;7.80;99.90
11762;DHT22;5938;47.098;15.474;2023-08-08T03:03:36;7.70;99.90
11762;DHT22;5938;47.098;15.474;2023-08-08T03:07:40;7.60;99.90
11762;DHT22;5938;47.098;15.474;2023-08-08T03:11:43;7.60;99.90
11762;DHT22;5938;47.098;15.474;2023-08-08T03:15:47;7.60;99.90
11762;DHT22;5938;47.098;15.474;2023-08-08T03:19:52;7.60;99.90
11762;DHT22;5938;47.098;15.474;2023-08-08T03:23:56;7.60;99.90
11762;DHT22;5938;47.098;15.474;2023-08-08T03:28:00;7.50;99.90
11762;DHT22;5938;47.098;15.474;2023-08-08T03:32:04;7.50;99.90
11762;DHT22;5938;47.098;15.474;2023-08-08T03:36:11;7.50;99.90
11762;DHT22;5938;47.098;15.474;2023-08-08T03:40:14;7.50;99.90
11762;DHT22;5938;47.098;15.474;2023-08-08T03:44:18;7.40;99.90
11762;DHT22;5938;47.098;15.474;2023-08-08T03:48:22;7.40;99.90
11762;DHT22;5938;47.098;15.474;2023-08-08T03:52:27;7.40;99.90
11762;DHT22;5938;47.098;15.474;2023-08-08T03:56:31;7.40;99.90
11762;DHT22;5938;47.098;15.474;2023-08-08T04:00:35;7.40;99.90
11762;DHT22;5938;47.098;15.474;2023-08-08T04:04:39;7.40;99.90
11762;DHT22;5938;47.098;15.474;2023-08-08T04:08:45;7.40;99.90
11762;DHT22;5938;47.098;15.474;2023-08-08T04:12:48;7.50;99.90
11762;DHT22;5938;47.098;15.474;2023-08-08T04:16:52;7.50;99.90
11762;DHT22;5938;47.098;15.474;2023-08-08T04:20:55;7.60;99.90
11762;DHT22;5938;47.098;15.474;2023-08-08T04:25:00;7.60;99.90
11762;DHT22;5938;47.098;15.474;2023-08-08T04:29:04;7.60;99.90
11762;DHT22;5938;47.098;15.474;2023-08-08T04:33:08;7.60;99.90
11762;DHT22;5938;47.098;15.474;2023-08-08T04:37:12;7.60;99.90
11762;DHT22;5938;47.098;15.474;2023-08-08T04:45:55;7.80;99.90
11762;DHT22;5938;47.098;15.474;2023-08-08T04:50:01;7.90;99.90
11762;DHT22;5938;47.098;15.474;2023-08-08T04:54:05;7.90;99.90
11762;DHT22;5938;47.098;15.474;2023-08-08T04:58:08;8.00;99.90
11762;DHT22;5938;47.098;15.474;2023-08-08T05:02:15;8.10;99.90
11762;DHT22;5938;47.098;15.474;2023-08-08T05:06:22;8.20;99.90
11762;DHT22;5938;47.098;15.474;2023-08-08T05:10:40;8.30;99.90
11762;DHT22;5938;47.098;15.474;2023-08-08T05:14:45;8.40;99.90
11762;DHT22;5938;47.098;15.474;2023-08-08T05:18:51;8.60;99.90
11762;DHT22;5938;47.098;15.474;2023-08-08T05:22:55;8.70;99.90
11762;DHT22;5938;47.098;15.474;2023-08-08T05:26:59;8.90;99.90
11762;DHT22;5938;47.098;15.474;2023-08-08T05:31:04;8.90;99.90
11762;DHT22;5938;47.098;15.474;2023-08-08T05:35:09;9.00;99.90
11762;DHT22;5938;47.098;15.474;2023-08-08T05:39:13;9.20;99.90
11762;DHT22;5938;47.098;15.474;2023-08-08T05:43:17;9.50;99.90
11762;DHT22;5938;47.098;15.474;2023-08-08T05:47:21;9.80;99.90
11762;DHT22;5938;47.098;15.474;2023-08-08T05:51:26;10.00;99.90
11762;DHT22;5938;47.098;15.474;2023-08-08T05:55:30;10.30;99.90
11762;DHT22;5938;47.098;15.474;2023-08-08T05:59:34;10.50;99.90
11762;DHT22;5938;47.098;15.474;2023-08-08T06:03:38;10.70;99.90
11762;DHT22;5938;47.098;15.474;2023-08-08T06:07:43;10.90;99.90
11762;DHT22;5938;47.098;15.474;2023-08-08T06:12:03;11.20;99.90
11762;DHT22;5938;47.098;15.474;2023-08-08T06:16:07;11.40;99.90
11762;DHT22;5938;47.098;15.474;2023-08-08T06:20:11;11.70;99.90
11762;DHT22;5938;47.098;15.474;2023-08-08T06:24:17;11.90;99.90
11762;DHT22;5938;47.098;15.474;2023-08-08T06:28:20;12.20;99.90
11762;DHT22;5938;47.098;15.474;2023-08-08T06:32:24;12.40;99.90
11762;DHT22;5938;47.098;15.474;2023-08-08T06:36:28;12.80;99.90
11762;DHT22;5938;47.098;15.474;2023-08-08T06:40:33;13.10;99.90
11762;DHT22;5938;47.098;15.474;2023-08-08T06:44:42;13.40;99.90
11762;DHT22;5938;47.098;15.474;2023-08-08T06:48:46;13.70;99.90
11762;DHT22;5938;47.098;15.474;2023-08-08T06:52:51;13.90;99.90
11762;DHT22;5938;47.098;15.474;2023-08-08T06:56:56;14.00;99.90
11762;DHT22;5938;47.098;15.474;2023-08-08T07:01:02;14.20;99.90
11762;DHT22;5938;47.098;15.474;2023-08-08T07:05:07;14.50;99.90
11762;DHT22;5938;47.098;15.474;2023-08-08T07:09:12;14.60;99.90
11762;DHT22;5938;47.098;15.474;2023-08-08T07:13:18;14.80;99.90
11762;DHT22;5938;47.098;15.474;2023-08-08T07:17:22;15.10;99.90
11762;DHT22;5938;47.098;15.474;2023-08-08T07:21:26;15.20;99.90
11762;DHT22;5938;47.098;15.474;2023-08-08T07:25:30;15.40;99.40
11762;DHT22;5938;47.098;15.474;2023-08-08T07:29:36;15.60;97.80
11762;DHT22;5938;47.098;15.474;2023-08-08T07:33:39;15.70;97.30
11762;DHT22;5938;47.098;15.474;2023-08-08T07:37:54;15.90;97.70
11762;DHT22;5938;47.098;15.474;2023-08-08T07:42:58;16.30;95.40
11762;DHT22;5938;47.098;15.474;2023-08-08T07:47:04;16.30;93.70
11762;DHT22;5938;47.098;15.474;2023-08-08T07:51:07;16.30;97.20
11762;DHT22;5938;47.098;15.474;2023-08-08T07:55:12;16.50;93.80
11762;DHT22;5938;47.098;15.474;2023-08-08T07:59:16;16.70;94.50
11762;DHT22;5938;47.098;15.474;2023-08-08T08:03:22;16.70;92.80
11762;DHT22;5938;47.098;15.474;2023-08-08T08:07:26;16.70;91.90
11762;DHT22;5938;47.098;15.474;2023-08-08T08:11:30;16.80;92.90
11762;DHT22;5938;47.098;15.474;2023-08-08T08:15:34;17.00;92.10
11762;DHT22;5938;47.098;15.474;2023-08-08T08:19:39;17.20;91.90
11762;DHT22;5938;47.098;15.474;2023-08-08T08:23:42;17.30;92.60
11762;DHT22;5938;47.098;15.474;2023-08-08T08:27:46;17.60;90.70
11762;DHT22;5938;47.098;15.474;2023-08-08T08:31:50;18.00;90.00
11762;DHT22;5938;47.098;15.474;2023-08-08T08:35:55;18.50;88.60
11762;DHT22;5938;47.098;15.474;2023-08-08T08:39:59;19.50;88.20
11762;DHT22;5938;47.098;15.474;2023-08-08T08:44:05;20.20;81.80
11762;DHT22;5938;47.098;15.474;2023-08-08T08:48:10;21.50;80.30
11762;DHT22;5938;47.098;15.474;2023-08-08T08:52:15;23.30;74.80
11762;DHT22;5938;47.098;15.474;2023-08-08T08:56:19;24.50;71.40
11762;DHT22;5938;47.098;15.474;2023-08-08T09:00:25;25.60;71.90
11762;DHT22;5938;47.098;15.474;2023-08-08T09:04:29;26.00;70.20
11762;DHT22;5938;47.098;15.474;2023-08-08T09:08:34;28.00;65.30
11762;DHT22;5938;47.098;15.474;2023-08-08T09:12:38;27.90;61.20
11762;DHT22;5938;47.098;15.474;2023-08-08T09:16:42;27.90;63.80
11762;DHT22;5938;47.098;15.474;2023-08-08T09:20:48;28.20;64.60
11762;DHT22;5938;47.098;15.474;2023-08-08T09:24:53;28.90;58.50
11762;DHT22;5938;47.098;15.474;2023-08-08T09:28:57;28.30;58.30
11762;DHT22;5938;47.098;15.474;2023-08-08T09:33:01;29.00;56.30
11762;DHT22;5938;47.098;15.474;2023-08-08T09:37:06;27.50;58.00
11762;DHT22;5938;47.098;15.474;2023-08-08T09:41:11;25.70;63.00
11762;DHT22;5938;47.098;15.474;2023-08-08T09:45:16;25.00;64.70
11762;DHT22;5938;47.098;15.474;2023-08-08T09:49:21;24.80;65.10
11762;DHT22;5938;47.098;15.474;2023-08-08T09:53:25;24.40;73.30
11762;DHT22;5938;47.098;15.474;2023-08-08T09:57:32;23.60;68.40
11762;DHT22;5938;47.098;15.474;2023-08-08T10:01:36;23.50;70.00
11762;DHT22;5938;47.098;15.474;2023-08-08T10:05:41;24.80;66.20
11762;DHT22;5938;47.098;15.474;2023-08-08T10:09:45;25.80;64.20
11762;DHT22;5938;47.098;15.474;2023-08-08T10:13:52;26.90;66.10
11762;DHT22;5938;47.098;15.474;2023-08-08T10:17:57;28.60;59.10
11762;DHT22;5938;47.098;15.474;2023-08-08T10:22:04;29.10;57.80
11762;DHT22;5938;47.098;15.474;2023-08-08T10:26:18;29.40;56.00
11762;DHT22;5938;47.098;15.474;2023-08-08T10:30:24;28.00;57.70
11762;DHT22;5938;47.098;15.474;2023-08-08T10:34:37;28.10;55.70
11762;DHT22;5938;47.098;15.474;2023-08-08T10:38:42;28.40;58.70
11762;DHT22;5938;47.098;15.474;2023-08-08T10:42:46;28.10;55.70
11762;DHT22;5938;47.098;15.474;2023-08-08T10:46:52;28.50;57.70
11762;DHT22;5938;47.098;15.474;2023-08-08T10:51:00;29.50;56.70
11762;DHT22;5938;47.098;15.474;2023-08-08T10:55:05;29.30;56.50
11762;DHT22;5938;47.098;15.474;2023-08-08T10:59:18;29.00;55.00
11762;DHT22;5938;47.098;15.474;2023-08-08T11:03:28;29.60;52.00
11762;DHT22;5938;47.098;15.474;2023-08-08T11:07:34;30.30;52.90
11762;DHT22;5938;47.098;15.474;2023-08-08T11:11:42;29.80;52.00
11762;DHT22;5938;47.098;15.474;2023-08-08T11:15:46;30.20;49.90
11762;DHT22;5938;47.098;15.474;2023-08-08T11:19:52;30.80;52.00
11762;DHT22;5938;47.098;15.474;2023-08-08T11:23:55;32.20;48.80
11762;DHT22;5938;47.098;15.474;2023-08-08T11:28:00;31.50;47.70
11762;DHT22;5938;47.098;15.474;2023-08-08T11:32:04;31.20;52.20
11762;DHT22;5938;47.098;15.474;2023-08-08T11:36:10;31.70;48.20
11762;DHT22;5938;47.098;15.474;2023-08-08T11:40:17;31.70;48.80
11762;DHT22;5938;47.098;15.474;2023-08-08T11:44:21;31.70;51.40
11762;DHT22;5938;47.098;15.474;2023-08-08T11:48:25;32.70;48.20
11762;DHT22;5938;47.098;15.474;2023-08-08T11:52:31;29.80;50.20
11762;DHT22;5938;47.098;15.474;2023-08-08T11:56:35;31.40;53.30
11762;DHT22;5938;47.098;15.474;2023-08-08T12:00:39;33.10;53.50
11762;DHT22;5938;47.098;15.474;2023-08-08T12:05:20;31.50;50.80
11762;DHT22;5938;47.098;15.474;2023-08-08T12:09:56;29.80;53.20
11762;DHT22;5938;47.098;15.474;2023-08-08T12:14:00;29.00;56.30
11762;DHT22;5938;47.098;15.474;2023-08-08T12:18:04;30.40;52.90
11762;DHT22;5938;47.098;15.474;2023-08-08T12:22:08;33.30;48.00
11762;DHT22;5938;47.098;15.474;2023-08-08T12:26:14;31.80;52.60
11762;DHT22;5938;47.098;15.474;2023-08-08T12:30:18;32.20;48.80
11762;DHT22;5938;47.098;15.474;2023-08-08T12:34:21;33.20;47.90
11762;DHT22;5938;47.098;15.474;2023-08-08T12:38:25;34.90;46.00
11762;DHT22;5938;47.098;15.474;2023-08-08T12:42:30;36.50;43.00
11762;DHT22;5938;47.098;15.474;2023-08-08T12:46:34;36.90;40.20
11762;DHT22;5938;47.098;15.474;2023-08-08T12:50:37;37.10;43.30
11762;DHT22;5938;47.098;15.474;2023-08-08T12:54:41;35.80;45.30
11762;DHT22;5938;47.098;15.474;2023-08-08T12:58:47;34.70;45.80
11762;DHT22;5938;47.098;15.474;2023-08-08T13:02:50;35.10;43.40
11762;DHT22;5938;47.098;15.474;2023-08-08T13:06:54;35.40;42.40
11762;DHT22;5938;47.098;15.474;2023-08-08T13:10:58;32.80;47.60
11762;DHT22;5938;47.098;15.474;2023-08-08T13:15:03;29.70;52.70
11762;DHT22;5938;47.098;15.474;2023-08-08T13:19:09;27.90;60.20
11762;DHT22;5938;47.098;15.474;2023-08-08T13:23:13;27.00;60.50
11762;DHT22;5938;47.098;15.474;2023-08-08T13:27:18;27.00;60.70
11762;DHT22;5938;47.098;15.474;2023-08-08T13:31:23;27.50;60.80
11762;DHT22;5938;47.098;15.474;2023-08-08T13:35:26;28.70;59.30
11762;DHT22;5938;47.098;15.474;2023-08-08T13:39:30;31.70;53.70
11762;DHT22;5938;47.098;15.474;2023-08-08T13:43:34;35.40;50.20
11762;DHT22;5938;47.098;15.474;2023-08-08T13:47:39;35.90;45.30
11762;DHT22;5938;47.098;15.474;2023-08-08T13:51:43;36.00;44.70
11762;DHT22;5938;47.098;15.474;2023-08-08T13:55:58;36.70;41.60
11762;DHT22;5938;47.098;15.474;2023-08-08T14:00:03;37.00;40.60
11762;DHT22;5938;47.098;15.474;2023-08-08T14:04:08;36.40;43.60
11762;DHT22;5938;47.098;15.474;2023-08-08T14:08:12;34.10;45.30
11762;DHT22;5938;47.098;15.474;2023-08-08T14:12:15;31.00;49.70
11762;DHT22;5938;47.098;15.474;2023-08-08T14:16:19;31.00;52.10
11762;DHT22;5938;47.098;15.474;2023-08-08T14:20:25;33.80;48.40
11762;DHT22;5938;47.098;15.474;2023-08-08T14:24:28;33.70;47.60
11762;DHT22;5938;47.098;15.474;2023-08-08T14:28:33;32.40;47.60
11762;DHT22;5938;47.098;15.474;2023-08-08T14:32:36;33.70;46.00
11762;DHT22;5938;47.098;15.474;2023-08-08T14:36:41;34.70;45.80
11762;DHT22;5938;47.098;15.474;2023-08-08T14:40:59;36.10;44.60
11762;DHT22;5938;47.098;15.474;2023-08-08T14:45:31;35.10;49.30
11762;DHT22;5938;47.098;15.474;2023-08-08T14:49:34;35.10;43.40
11762;DHT22;5938;47.098;15.474;2023-08-08T14:53:39;33.40;48.00
11762;DHT22;5938;47.098;15.474;2023-08-08T14:57:54;32.80;52.50
11762;DHT22;5938;47.098;15.474;2023-08-08T15:01:58;32.50;49.40
11762;DHT22;5938;47.098;15.474;2023-08-08T15:06:01;30.70;52.80
11762;DHT22;5938;47.098;15.474;2023-08-08T15:10:08;29.60;56.70
11762;DHT22;5938;47.098;15.474;2023-08-08T15:14:13;28.40;63.00
11762;DHT22;5938;47.098;15.474;2023-08-08T15:18:16;27.70;61.00
11762;DHT22;5938;47.098;15.474;2023-08-08T15:22:20;26.90;67.00
11762;DHT22;5938;47.098;15.474;2023-08-08T15:26:25;26.50;66.60
11762;DHT22;5938;47.098;15.474;2023-08-08T15:30:29;26.40;67.20
11762;DHT22;5938;47.098;15.474;2023-08-08T15:34:34;26.60;71.00
11762;DHT22;5938;47.098;15.474;2023-08-08T15:38:38;26.10;71.00
11762;DHT22;5938;47.098;15.474;2023-08-08T15:42:44;26.30;69.30
11762;DHT22;5938;47.098;15.474;2023-08-08T15:46:47;25.80;70.80
11762;DHT22;5938;47.098;15.474;2023-08-08T15:50:53;25.30;75.30
11762;DHT22;5938;47.098;15.474;2023-08-08T15:54:58;25.10;75.80
11762;DHT22;5938;47.098;15.474;2023-08-08T15:59:03;24.50;76.20
11762;DHT22;5938;47.098;15.474;2023-08-08T16:03:07;24.50;78.10
11762;DHT22;5938;47.098;15.474;2023-08-08T16:07:11;24.50;78.80
11762;DHT22;5938;47.098;15.474;2023-08-08T16:11:20;24.80;77.70
11762;DHT22;5938;47.098;15.474;2023-08-08T16:20:53;24.30;78.50
11762;DHT22;5938;47.098;15.474;2023-08-08T16:25:00;23.80;79.60
11762;DHT22;5938;47.098;15.474;2023-08-08T16:34:37;23.40;80.20
11762;DHT22;5938;47.098;15.474;2023-08-08T16:38:42;22.80;82.00
11762;DHT22;5938;47.098;15.474;2023-08-08T16:42:46;22.40;83.90
11762;DHT22;5938;47.098;15.474;2023-08-08T16:46:49;22.10;83.60
11762;DHT22;5938;47.098;15.474;2023-08-08T16:50:53;21.90;83.50
11762;DHT22;5938;47.098;15.474;2023-08-08T16:54:59;21.70;87.00
11762;DHT22;5938;47.098;15.474;2023-08-08T16:59:03;21.30;89.40
11762;DHT22;5938;47.098;15.474;2023-08-08T17:07:24;20.80;89.60
11762;DHT22;5938;47.098;15.474;2023-08-08T17:11:32;20.30;90.10
11762;DHT22;5938;47.098;15.474;2023-08-08T17:15:37;20.20;90.90
11762;DHT22;5938;47.098;15.474;2023-08-08T17:24:25;19.70;93.00
11762;DHT22;5938;47.098;15.474;2023-08-08T17:28:40;19.50;94.60
11762;DHT22;5938;47.098;15.474;2023-08-08T17:32:44;19.20;96.60
11762;DHT22;5938;47.098;15.474;2023-08-08T17:36:50;18.90;97.40
11762;DHT22;5938;47.098;15.474;2023-08-08T17:40:55;18.60;98.70
11762;DHT22;5938;47.098;15.474;2023-08-08T17:45:07;18.40;99.10
11762;DHT22;5938;47.098;15.474;2023-08-08T17:49:13;18.20;99.90
11762;DHT22;5938;47.098;15.474;2023-08-08T17:53:20;18.20;99.90
11762;DHT22;5938;47.098;15.474;2023-08-08T17:57:26;18.00;99.90
11762;DHT22;5938;47.098;15.474;2023-08-08T18:01:32;17.90;99.90
11762;DHT22;5938;47.098;15.474;2023-08-08T18:05:40;17.80;99.90
11762;DHT22;5938;47.098;15.474;2023-08-08T18:09:44;17.60;99.90
11762;DHT22;5938;47.098;15.474;2023-08-08T18:13:56;17.40;99.90
11762;DHT22;5938;47.098;15.474;2023-08-08T18:18:12;17.30;99.90
11762;DHT22;5938;47.098;15.474;2023-08-08T18:22:18;17.00;99.90
11762;DHT22;5938;47.098;15.474;2023-08-08T18:26:29;16.90;99.90
11762;DHT22;5938;47.098;15.474;2023-08-08T18:30:36;16.70;99.90
11762;DHT22;5938;47.098;15.474;2023-08-08T18:34:47;16.60;99.90
11762;DHT22;5938;47.098;15.474;2023-08-08T18:38:58;16.50;99.90
11762;DHT22;5938;47.098;15.474;2023-08-08T18:43:18;16.30;99.90
11762;DHT22;5938;47.098;15.474;2023-08-08T18:47:29;16.20;99.90
11762;DHT22;5938;47.098;15.474;2023-08-08T18:51:43;16.10;99.90
11762;DHT22;5938;47.098;15.474;2023-08-08T18:55:50;16.20;99.90
11762;DHT22;5938;47.098;15.474;2023-08-08T18:59:57;16.10;99.90
11762;DHT22;5938;47.098;15.474;2023-08-08T19:04:04;16.00;99.90
11762;DHT22;5938;47.098;15.474;2023-08-08T19:08:21;15.90;99.90
11762;DHT22;5938;47.098;15.474;2023-08-08T19:12:34;15.80;99.90
11762;DHT22;5938;47.098;15.474;2023-08-08T19:16:47;15.70;99.90
11762;DHT22;5938;47.098;15.474;2023-08-08T19:20:59;15.60;99.90
11762;DHT22;5938;47.098;15.474;2023-08-08T19:25:10;15.60;99.90
11762;DHT22;5938;47.098;15.474;2023-08-08T19:29:21;15.50;99.90
11762;DHT22;5938;47.098;15.474;2023-08-08T19:33:28;15.50;99.90
11762;DHT22;5938;47.098;15.474;2023-08-08T19:37:37;15.50;99.90
11762;DHT22;5938;47.098;15.474;2023-08-08T19:41:46;15.40;99.90
11762;DHT22;5938;47.098;15.474;2023-08-08T19:45:54;15.40;99.90
11762;DHT22;5938;47.098;15.474;2023-08-08T19:49:59;15.40;99.90
11762;DHT22;5938;47.098;15.474;2023-08-08T19:54:04;15.40;99.90
11762;DHT22;5938;47.098;15.474;2023-08-08T19:58:13;15.40;99.90
11762;DHT22;5938;47.098;15.474;2023-08-08T20:02:20;15.50;99.90
11762;DHT22;5938;47.098;15.474;2023-08-08T20:06:32;15.50;99.90
11762;DHT22;5938;47.098;15.474;2023-08-08T20:10:37;15.50;99.90
11762;DHT22;5938;47.098;15.474;2023-08-08T20:14:46;15.50;99.90
11762;DHT22;5938;47.098;15.474;2023-08-08T20:18:52;15.50;99.90
11762;DHT22;5938;47.098;15.474;2023-08-08T20:22:56;15.40;99.90
11762;DHT22;5938;47.098;15.474;2023-08-08T20:27:02;15.40;99.90
11762;DHT22;5938;47.098;15.474;2023-08-08T20:31:11;15.30;99.90
11762;DHT22;5938;47.098;15.474;2023-08-08T20:35:16;15.40;99.90
11762;DHT22;5938;47.098;15.474;2023-08-08T20:39:22;15.40;99.90
11762;DHT22;5938;47.098;15.474;2023-08-08T20:43:27;15.40;99.90
11762;DHT22;5938;47.098;15.474;2023-08-08T20:47:34;15.40;99.90
11762;DHT22;5938;47.098;15.474;2023-08-08T20:51:38;15.40;99.90
11762;DHT22;5938;47.098;15.474;2023-08-08T20:55:43;15.40;99.90
11762;DHT22;5938;47.098;15.474;2023-08-08T20:59:47;15.40;99.90
11762;DHT22;5938;47.098;15.474;2023-08-08T21:03:54;15.40;99.90
11762;DHT22;5938;47.098;15.474;2023-08-08T21:08:02;15.30;99.90
11762;DHT22;5938;47.098;15.474;2023-08-08T21:12:09;15.20;99.90
11762;DHT22;5938;47.098;15.474;2023-08-08T21:16:14;15.10;99.90
11762;DHT22;5938;47.098;15.474;2023-08-08T21:20:20;15.00;99.90
11762;DHT22;5938;47.098;15.474;2023-08-08T21:24:24;14.70;99.90
11762;DHT22;5938;47.098;15.474;2023-08-08T21:28:27;14.60;99.90
11762;DHT22;5938;47.098;15.474;2023-08-08T21:32:31;14.50;99.90
11762;DHT22;5938;47.098;15.474;2023-08-08T21:36:36;14.30;99.90
11762;DHT22;5938;47.098;15.474;2023-08-08T21:40:39;14.20;99.90
11762;DHT22;5938;47.098;15.474;2023-08-08T21:44:43;14.00;99.90
11762;DHT22;5938;47.098;15.474;2023-08-08T21:48:46;13.90;99.90
11762;DHT22;5938;47.098;15.474;2023-08-08T21:52:51;13.90;99.90
11762;DHT22;5938;47.098;15.474;2023-08-08T21:56:54;13.80;99.90
11762;DHT22;5938;47.098;15.474;2023-08-08T22:00:58;13.80;99.90
11762;DHT22;5938;47.098;15.474;2023-08-08T22:05:02;13.90;99.90
11762;DHT22;5938;47.098;15.474;2023-08-08T22:09:07;14.00;99.90
11762;DHT22;5938;47.098;15.474;2023-08-08T22:13:10;14.10;99.90
11762;DHT22;5938;47.098;15.474;2023-08-08T22:17:14;14.10;99.90
11762;DHT22;5938;47.098;15.474;2023-08-08T22:21:17;14.20;99.90
11762;DHT22;5938;47.098;15.474;2023-08-08T22:25:22;14.20;99.90
11762;DHT22;5938;47.098;15.474;2023-08-08T22:29:26;14.20;99.90
11762;DHT22;5938;47.098;15.474;2023-08-08T22:33:30;14.10;99.90
11762;DHT22;5938;47.098;15.474;2023-08-08T22:37:33;14.10;99.90
11762;DHT22;5938;47.098;15.474;2023-08-08T22:41:38;14.10;99.90
11762;DHT22;5938;47.098;15.474;2023-08-08T22:45:42;14.10;99.90
11762;DHT22;5938;47.098;15.474;2023-08-08T22:49:45;14.00;99.90
11762;DHT22;5938;47.098;15.474;2023-08-08T22:53:48;13.90;99.90
11762;DHT22;5938;47.098;15.474;2023-08-08T22:57:54;13.70;99.90
11762;DHT22;5938;47.098;15.474;2023-08-08T23:01:57;13.50;99.90
11762;DHT22;5938;47.098;15.474;2023-08-08T23:06:02;13.50;99.90
11762;DHT22;5938;47.098;15.474;2023-08-08T23:10:06;13.50;99.90
11762;DHT22;5938;47.098;15.474;2023-08-08T23:14:11;13.40;99.90
11762;DHT22;5938;47.098;15.474;2023-08-08T23:18:15;13.40;99.90
11762;DHT22;5938;47.098;15.474;2023-08-08T23:22:18;13.30;99.90
11762;DHT22;5938;47.098;15.474;2023-08-08T23:26:22;13.30;99.90
11762;DHT22;5938;47.098;15.474;2023-08-08T23:30:26;13.20;99.90
11762;DHT22;5938;47.098;15.474;2023-08-08T23:34:31;13.00;99.90
11762;DHT22;5938;47.098;15.474;2023-08-08T23:38:34;13.00;99.90
11762;DHT22;5938;47.098;15.474;2023-08-08T23:42:38;12.90;99.90
11762;DHT22;5938;47.098;15.474;2023-08-08T23:46:43;12.80;99.90
11762;DHT22;5938;47.098;15.474;2023-08-08T23:50:46;12.70;99.90
11762;DHT22;5938;47.098;15.474;2023-08-08T23:54:50;12.60;99.90
11762;DHT22;5938;47.098;15.474;2023-08-08T23:58:53;12.50;99.90
